createdAt,value
2018-11-20T00:01:47.096Z,7.00
2018-11-20T00:07:22.205Z,4.87
2018-11-20T00:12:57.076Z,6.90
2018-11-20T00:18:20.737Z,6.37
2018-11-20T00:23:55.971Z,6.87
2018-11-20T00:29:12.296Z,7.03
2018-11-20T00:34:49.557Z,5.97
2018-11-20T00:40:06.832Z,9.50
2018-11-20T00:51:25.412Z,6.10
2018-11-20T00:57:02.914Z,8.75
2018-11-20T01:02:37.777Z,7.20
2018-11-20T01:08:12.178Z,6.33
2018-11-20T01:19:32.144Z,9.05
2018-11-20T01:25:14.398Z,9.20
2018-11-20T01:30:56.596Z,6.50
2018-11-20T01:36:38.813Z,5.72
2018-11-20T01:42:38.600Z,7.30
2018-11-20T01:48:20.169Z,7.72
2018-11-20T01:54:02.411Z,5.08
2018-11-20T01:59:44.655Z,7.53
2018-11-20T02:05:18.612Z,5.05
2018-11-20T02:11:00.849Z,6.33
2018-11-20T02:16:43.311Z,6.97
2018-11-20T02:22:25.622Z,9.10
2018-11-20T02:28:08.110Z,7.75
2018-11-20T02:33:49.791Z,6.30
2018-11-20T02:39:32.039Z,6.47
2018-11-20T02:45:14.247Z,6.40
2018-11-20T03:02:45.630Z,7.57
2018-11-20T03:08:27.844Z,7.20
2018-11-20T03:14:27.589Z,8.37
2018-11-20T03:20:09.822Z,7.53
2018-11-20T03:25:54.845Z,10.13
2018-11-20T03:31:37.084Z,9.40
2018-11-20T03:37:00.194Z,6.92
2018-11-20T03:42:42.521Z,6.78
2018-11-20T03:48:35.558Z,6.58
2018-11-20T03:54:18.123Z,8.95
2018-11-20T04:00:00.367Z,9.75
2018-11-20T04:05:42.603Z,10.38
2018-11-20T04:11:24.832Z,7.50
2018-11-20T04:16:48.130Z,6.33
2018-11-20T04:22:30.333Z,9.07
2018-11-20T04:28:12.549Z,10.75
2018-11-20T04:33:55.358Z,8.43
2018-11-20T04:39:37.608Z,8.95
2018-11-20T04:45:19.852Z,10.25
2018-11-20T04:50:50.622Z,9.40
2018-11-20T04:56:32.085Z,6.37
2018-11-20T05:02:14.348Z,5.22
2018-11-20T05:07:56.839Z,7.78
2018-11-20T05:13:39.075Z,7.33
2018-11-20T05:19:21.340Z,8.65
2018-11-20T05:25:03.568Z,10.13
2018-11-20T05:36:50.822Z,8.33
2018-11-20T05:42:33.066Z,7.75
2018-11-20T05:48:15.287Z,9.47
2018-11-20T05:53:57.569Z,12.20
2018-11-20T05:59:20.202Z,7.77
2018-11-20T06:05:03.465Z,10.55
2018-11-20T06:10:45.844Z,7.58
2018-11-20T06:22:37.309Z,12.15
2018-11-20T06:28:19.560Z,10.00
2018-11-20T06:34:01.850Z,10.43
2018-11-20T06:39:39.900Z,11.47
2018-11-20T06:45:22.134Z,16.70
2018-11-20T06:51:04.569Z,11.33
2018-11-20T06:56:46.849Z,11.65
2018-11-20T07:02:29.125Z,10.97
2018-11-20T07:08:29.157Z,12.18
2018-11-20T07:14:30.277Z,10.15
2018-11-20T07:20:12.488Z,15.48
2018-11-20T07:25:54.711Z,11.97
2018-11-20T07:31:37.044Z,15.32
2018-11-20T07:43:05.386Z,15.23
2018-11-20T07:48:47.605Z,9.40
2018-11-20T07:54:29.867Z,14.73
2018-11-20T08:05:29.294Z,15.13
2018-11-20T08:11:11.550Z,12.33
2018-11-20T08:16:53.783Z,14.00
2018-11-20T08:22:53.459Z,13.53
2018-11-20T08:28:35.744Z,14.60
2018-11-20T08:34:18.070Z,11.12
2018-11-20T08:40:00.229Z,15.17
2018-11-20T08:45:42.425Z,12.63
2018-11-20T08:51:25.052Z,15.32
2018-11-20T08:56:59.628Z,12.37
2018-11-20T09:08:02.015Z,13.00
2018-11-20T09:13:36.291Z,11.10
2018-11-20T09:19:14.469Z,11.25
2018-11-20T09:24:49.874Z,10.03
2018-11-20T09:30:24.993Z,11.80
2018-11-20T09:35:41.757Z,9.65
2018-11-20T09:41:16.836Z,11.22
2018-11-20T09:46:57.694Z,8.27
2018-11-20T10:03:35.361Z,8.03
2018-11-20T10:09:10.464Z,11.68
2018-11-20T10:14:44.969Z,9.70
2018-11-20T10:20:22.152Z,8.60
2018-11-20T10:25:50.613Z,10.47
2018-11-20T10:31:25.599Z,8.45
2018-11-20T10:36:58.678Z,8.85
2018-11-20T10:42:33.454Z,12.53
2018-11-20T10:48:14.833Z,10.98
2018-11-20T10:53:49.902Z,8.90
2018-11-20T10:59:24.800Z,11.30
2018-11-20T11:05:03.332Z,8.83
2018-11-20T11:16:13.231Z,10.35
2018-11-20T11:21:37.359Z,13.38
2018-11-20T11:27:18.457Z,11.50
2018-11-20T11:38:32.358Z,14.98
2018-11-20T11:44:06.861Z,8.90
2018-11-20T11:49:44.809Z,11.93
2018-11-20T11:55:22.978Z,15.25
2018-11-20T12:00:52.887Z,14.03
2018-11-20T12:12:10.481Z,13.28
2018-11-20T12:17:52.197Z,10.00
2018-11-20T12:23:26.917Z,12.33
2018-11-20T12:29:02.100Z,10.80
2018-11-20T12:34:39.850Z,11.67
2018-11-20T12:40:16.812Z,11.60
2018-11-20T12:51:29.199Z,13.08
2018-11-20T12:56:46.090Z,16.27
2018-11-20T13:02:21.073Z,16.80
2018-11-20T13:07:56.351Z,12.63
2018-11-20T13:13:31.195Z,13.30
2018-11-20T13:19:06.462Z,17.32
2018-11-20T13:24:41.768Z,11.63
2018-11-20T13:30:22.637Z,14.58
2018-11-20T13:35:49.645Z,12.10
2018-11-20T13:41:21.386Z,15.40
2018-11-20T13:46:55.908Z,11.63
2018-11-20T13:52:12.555Z,13.90
2018-11-20T13:57:47.703Z,15.95
2018-11-20T14:03:12.260Z,12.68
2018-11-20T14:08:54.520Z,11.38
2018-11-20T14:14:26.212Z,10.88
2018-11-20T14:20:08.442Z,13.65
2018-11-20T14:25:51.430Z,14.85
2018-11-20T14:31:34.241Z,12.40
2018-11-20T14:43:06.587Z,15.85
2018-11-20T14:54:35.329Z,15.35
2018-11-20T14:59:57.827Z,13.53
2018-11-20T15:05:40.179Z,16.30
2018-11-20T15:11:22.794Z,14.78
2018-11-20T15:16:44.585Z,12.75
2018-11-20T15:22:26.815Z,13.60
2018-11-20T15:27:56.691Z,15.07
2018-11-20T15:33:38.918Z,17.77
2018-11-20T15:45:07.425Z,10.58
2018-11-20T15:56:28.748Z,21.27
2018-11-20T16:02:11.077Z,19.48
2018-11-20T16:07:53.552Z,21.85
2018-11-20T16:13:36.052Z,19.52
2018-11-20T16:19:18.567Z,24.83
2018-11-20T16:25:00.795Z,19.92
2018-11-20T16:31:00.937Z,18.55
2018-11-20T16:36:43.157Z,16.07
2018-11-20T16:42:25.762Z,22.15
2018-11-20T16:47:58.694Z,17.02
2018-11-20T16:53:40.921Z,11.83
2018-11-20T16:59:03.134Z,20.15
2018-11-20T17:16:33.543Z,10.33
2018-11-20T17:28:02.119Z,13.85
2018-11-20T17:33:44.344Z,14.87
2018-11-20T17:39:28.116Z,14.45
2018-11-20T17:45:10.446Z,22.62
2018-11-20T17:50:52.696Z,19.67
2018-11-20T17:56:34.929Z,19.40
2018-11-20T18:02:17.186Z,12.43
2018-11-20T18:07:59.468Z,25.52
2018-11-20T18:13:41.696Z,22.33
2018-11-20T18:25:02.521Z,21.33
2018-11-20T18:30:45.063Z,23.85
2018-11-20T18:36:27.312Z,14.68
2018-11-20T18:47:58.076Z,16.50
2018-11-20T18:53:40.542Z,17.95
2018-11-20T19:05:43.674Z,15.90
2018-11-20T19:11:25.909Z,15.72
2018-11-20T19:17:08.130Z,23.40
2018-11-20T19:22:50.617Z,17.00
2018-11-20T19:28:32.875Z,26.10
2018-11-20T19:34:07.191Z,22.57
2018-11-20T19:39:29.638Z,20.23
2018-11-20T19:45:04.474Z,19.92
2018-11-20T19:50:39.698Z,24.27
2018-11-20T20:01:43.460Z,21.33
2018-11-20T20:07:19.797Z,20.07
2018-11-20T20:12:46.817Z,18.07
2018-11-20T20:18:22.042Z,21.37
2018-11-20T20:23:57.481Z,18.40
2018-11-20T20:29:32.219Z,17.67
2018-11-20T20:35:07.493Z,21.27
2018-11-20T20:40:42.154Z,18.77
2018-11-20T20:46:08.901Z,20.43
2018-11-20T20:51:43.847Z,17.87
2018-11-20T21:03:03.997Z,17.35
2018-11-20T21:14:17.462Z,15.55
2018-11-20T21:19:52.463Z,21.33
2018-11-20T21:31:08.857Z,13.53
2018-11-20T21:36:43.553Z,18.32
2018-11-20T21:42:18.345Z,18.60
2018-11-20T21:47:52.889Z,17.87
2018-11-20T21:53:27.844Z,15.55
2018-11-20T21:59:02.850Z,14.33
2018-11-20T22:05:12.692Z,16.75
2018-11-20T22:10:50.799Z,17.97
2018-11-20T22:22:04.629Z,19.80
2018-11-20T22:27:40.970Z,19.37
2018-11-20T22:38:57.557Z,20.17
2018-11-20T22:44:36.013Z,17.77
2018-11-20T22:50:10.901Z,18.10
2018-11-20T23:01:31.487Z,16.67
2018-11-20T23:07:06.424Z,20.35
2018-11-20T23:12:21.649Z,22.35
2018-11-20T23:17:37.004Z,18.42
2018-11-20T23:23:11.785Z,18.98
2018-11-20T23:34:06.953Z,19.85
2018-11-20T23:39:22.794Z,18.53
2018-11-20T23:44:40.094Z,10.80
2018-11-20T23:49:55.895Z,19.55
2018-11-20T23:55:15.170Z,21.82
